Time;durP1;ratioP1;P1;durP2;ratioP2;P2;SDS_P1;SDS_P2;PMS_P1;PMS_P2;Temp;Humidity;BMP_temperature;BMP_pressure;BME280_temperature;BME280_humidity;BME280_pressure;Samples;Min_cycle;Max_cycle;Signal;HPM_P1;HPM_P2
2023/08/19 00:01:05;;;;;;;4.30;3.20;;;;;;;;;;4943115;28;20405;-72
2023/08/19 00:03:34;;;;;;;4.07;2.83;;;;;;;;;;4960310;28;20061;-72
2023/08/19 00:06:05;;;;;;;3.22;2.92;;;;;;;;;;4961890;28;20882;-74
2023/08/19 00:08:30;;;;;;;3.05;2.47;;;;;;;;;;4959141;28;20440;-75
2023/08/19 00:10:56;;;;;;;4.90;2.78;;;;;;;;;;4960910;28;20137;-73
2023/08/19 00:13:21;;;;;;;3.80;2.55;;;;;;;;;;4960098;28;20084;-73
2023/08/19 00:15:47;;;;;;;7.15;2.83;;;;;;;;;;4961013;28;20054;-72
2023/08/19 00:18:12;;;;;;;3.50;2.53;;;;;;;;;;4960154;28;20049;-74
2023/08/19 00:20:38;;;;;;;5.10;2.80;;;;;;;;;;4961105;28;20042;-75
2023/08/19 00:23:03;;;;;;;4.45;2.65;;;;;;;;;;4943667;28;20050;-72
2023/08/19 00:25:28;;;;;;;4.25;2.95;;;;;;;;;;4959791;28;20051;-74
2023/08/19 00:27:54;;;;;;;3.33;2.67;;;;;;;;;;4960817;28;20097;-72
2023/08/19 00:30:20;;;;;;;5.18;2.67;;;;;;;;;;4958736;28;20047;-73
2023/08/19 00:32:47;;;;;;;6.15;2.65;;;;;;;;;;4943076;28;20511;-72
2023/08/19 00:35:14;;;;;;;3.05;2.60;;;;;;;;;;4942375;28;20042;-73
2023/08/19 00:37:39;;;;;;;4.75;3.00;;;;;;;;;;4943317;28;20043;-71
2023/08/19 00:40:06;;;;;;;2.70;2.50;;;;;;;;;;4959421;28;20039;-74
2023/08/19 00:42:31;;;;;;;3.90;2.65;;;;;;;;;;4959566;28;20038;-72
2023/08/19 00:44:57;;;;;;;4.35;2.63;;;;;;;;;;4960844;28;20049;-74
2023/08/19 00:47:24;;;;;;;5.53;3.17;;;;;;;;;;4941635;28;20058;-73
2023/08/19 00:49:50;;;;;;;5.50;2.60;;;;;;;;;;4959620;28;20051;-73
2023/08/19 00:52:16;;;;;;;5.05;2.90;;;;;;;;;;4959415;28;20413;-72
2023/08/19 00:54:42;;;;;;;9.20;2.97;;;;;;;;;;4943282;28;20043;-75
2023/08/19 00:57:09;;;;;;;5.45;3.20;;;;;;;;;;4959448;28;20222;-72
2023/08/19 00:59:36;;;;;;;7.95;2.78;;;;;;;;;;4960373;28;20042;-72
2023/08/19 01:02:03;;;;;;;3.75;3.00;;;;;;;;;;4960532;28;20097;-72
2023/08/19 01:04:28;;;;;;;6.80;2.85;;;;;;;;;;4959570;28;20057;-74
2023/08/19 01:07:08;;;;;;;4.57;2.95;;;;;;;;;;4960641;28;20051;-75
2023/08/19 01:09:46;;;;;;;3.20;2.83;;;;;;;;;;4919930;28;20047;-75
2023/08/19 01:12:32;;;;;;;4.57;2.45;;;;;;;;;;4958889;28;20403;-71
2023/08/19 01:15:06;;;;;;;4.38;3.50;;;;;;;;;;4942372;28;20046;-73
2023/08/19 01:17:33;;;;;;;4.75;3.00;;;;;;;;;;4958571;28;20129;-73
2023/08/19 01:19:59;;;;;;;3.47;3.00;;;;;;;;;;4957685;28;20146;-71
2023/08/19 01:22:37;;;;;;;4.45;3.10;;;;;;;;;;4940174;28;20050;-73
2023/08/19 01:25:04;;;;;;;5.00;2.97;;;;;;;;;;4958279;28;20171;-73
2023/08/19 01:27:30;;;;;;;5.70;2.97;;;;;;;;;;4958436;28;20059;-71
2023/08/19 01:29:55;;;;;;;6.03;2.97;;;;;;;;;;4943331;28;20038;-74
2023/08/19 01:32:23;;;;;;;5.47;3.17;;;;;;;;;;4960822;28;20146;-73
2023/08/19 01:34:50;;;;;;;3.38;3.08;;;;;;;;;;4947010;28;20858;-74
2023/08/19 01:37:25;;;;;;;6.38;3.17;;;;;;;;;;4960141;28;20049;-73
2023/08/19 01:39:54;;;;;;;3.42;2.80;;;;;;;;;;4931545;28;20054;-75
2023/08/19 01:42:21;;;;;;;6.43;2.78;;;;;;;;;;4960267;28;20403;-74
2023/08/19 01:44:48;;;;;;;4.70;2.70;;;;;;;;;;4959029;28;20145;-74
2023/08/19 01:47:16;;;;;;;5.47;2.88;;;;;;;;;;4958443;28;20126;-75
2023/08/19 01:49:45;;;;;;;3.42;2.70;;;;;;;;;;4943041;28;20058;-74
2023/08/19 01:52:12;;;;;;;3.28;2.97;;;;;;;;;;4958449;28;20046;-75
2023/08/19 01:54:38;;;;;;;7.78;3.38;;;;;;;;;;4942836;28;20039;-72
2023/08/19 01:57:03;;;;;;;5.18;3.55;;;;;;;;;;4959315;28;20050;-72
2023/08/19 01:59:29;;;;;;;5.70;3.28;;;;;;;;;;4961538;28;20101;-72
2023/08/19 02:01:54;;;;;;;4.13;3.20;;;;;;;;;;4945900;28;20054;-74
2023/08/19 02:04:20;;;;;;;4.07;3.10;;;;;;;;;;4963773;28;20051;-73
2023/08/19 02:06:46;;;;;;;5.75;3.05;;;;;;;;;;4963227;28;20054;-72
2023/08/19 02:09:12;;;;;;;3.72;3.15;;;;;;;;;;4945190;28;20050;-72
2023/08/19 02:11:37;;;;;;;4.18;3.33;;;;;;;;;;4963581;28;20050;-72
2023/08/19 02:14:03;;;;;;;6.82;3.58;;;;;;;;;;4946374;28;20046;-71
2023/08/19 02:16:29;;;;;;;8.80;3.95;;;;;;;;;;4962238;28;20061;-73
2023/08/19 02:18:57;;;;;;;5.18;3.67;;;;;;;;;;4963784;28;20050;-73
2023/08/19 02:21:22;;;;;;;4.28;3.67;;;;;;;;;;4961558;28;20518;-73
2023/08/19 02:23:48;;;;;;;4.07;3.67;;;;;;;;;;4945499;28;20042;-74
2023/08/19 02:26:13;;;;;;;7.07;3.60;;;;;;;;;;4962104;28;20089;-72
2023/08/19 02:28:38;;;;;;;4.82;3.70;;;;;;;;;;4963272;28;20093;-73
2023/08/19 02:31:04;;;;;;;5.18;4.13;;;;;;;;;;4961170;28;20043;-74
2023/08/19 02:33:29;;;;;;;4.78;3.42;;;;;;;;;;4962801;28;20130;-73
2023/08/19 02:35:55;;;;;;;6.72;3.58;;;;;;;;;;4946347;28;20053;-72
2023/08/19 02:38:20;;;;;;;4.10;3.70;;;;;;;;;;4963338;28;20522;-73
2023/08/19 02:40:49;;;;;;;7.05;3.70;;;;;;;;;;4945715;28;20062;-73
2023/08/19 02:43:15;;;;;;;6.13;3.70;;;;;;;;;;4961991;28;20496;-73
2023/08/19 02:45:41;;;;;;;5.53;3.65;;;;;;;;;;4945598;28;20043;-75
2023/08/19 02:48:07;;;;;;;6.57;3.90;;;;;;;;;;4945574;28;20072;-76
2023/08/19 02:50:32;;;;;;;4.70;3.20;;;;;;;;;;4945389;28;20046;-74
2023/08/19 02:52:58;;;;;;;3.38;3.08;;;;;;;;;;4944522;28;20077;-76
2023/08/19 02:55:23;;;;;;;5.85;3.35;;;;;;;;;;4944708;28;20518;-74
2023/08/19 02:57:49;;;;;;;5.85;3.60;;;;;;;;;;4961540;28;20113;-74
2023/08/19 03:00:15;;;;;;;6.47;3.33;;;;;;;;;;4961275;28;20042;-75
2023/08/19 03:02:44;;;;;;;4.22;3.38;;;;;;;;;;4962808;28;20043;-73
2023/08/19 03:05:10;;;;;;;4.38;3.38;;;;;;;;;;4943877;28;20047;-75
2023/08/19 03:07:35;;;;;;;7.95;3.13;;;;;;;;;;4961148;28;20121;-72
2023/08/19 03:10:01;;;;;;;5.30;3.50;;;;;;;;;;4945311;28;20089;-73
2023/08/19 03:12:26;;;;;;;4.13;3.10;;;;;;;;;;4954365;28;20436;-72
2023/08/19 03:14:52;;;;;;;4.15;3.10;;;;;;;;;;4945354;28;20642;-73
2023/08/19 03:17:18;;;;;;;3.63;3.00;;;;;;;;;;4960734;28;20277;-74
2023/08/19 03:19:43;;;;;;;6.20;3.45;;;;;;;;;;4945558;28;20057;-74
2023/08/19 03:22:09;;;;;;;5.75;3.30;;;;;;;;;;4962186;28;20039;-72
2023/08/19 03:24:35;;;;;;;4.15;3.53;;;;;;;;;;4962359;28;20136;-76
2023/08/19 03:27:01;;;;;;;5.95;3.67;;;;;;;;;;4960956;28;20134;-74
2023/08/19 03:29:27;;;;;;;4.00;3.45;;;;;;;;;;4944380;28;20407;-75
2023/08/19 03:31:52;;;;;;;4.45;3.30;;;;;;;;;;4961617;28;20046;-75
2023/08/19 03:34:17;;;;;;;7.47;3.65;;;;;;;;;;4942594;28;20069;-74
2023/08/19 03:36:43;;;;;;;3.58;3.00;;;;;;;;;;4944721;28;20096;-74
2023/08/19 03:39:09;;;;;;;4.90;3.28;;;;;;;;;;4957695;28;20194;-74
2023/08/19 03:41:34;;;;;;;4.72;3.40;;;;;;;;;;4959452;28;20529;-75
2023/08/19 03:44:00;;;;;;;3.22;2.92;;;;;;;;;;4959503;28;20062;-74
2023/08/19 03:46:25;;;;;;;3.40;3.10;;;;;;;;;;4957244;28;20819;-74
2023/08/19 03:48:51;;;;;;;5.22;3.45;;;;;;;;;;4927319;28;20049;-74
2023/08/19 03:51:16;;;;;;;5.70;3.83;;;;;;;;;;4958086;28;20074;-74
2023/08/19 03:53:42;;;;;;;5.50;3.28;;;;;;;;;;4959863;28;20166;-75
2023/08/19 03:56:07;;;;;;;3.63;2.97;;;;;;;;;;4959597;28;20085;-73
2023/08/19 03:58:33;;;;;;;3.72;3.05;;;;;;;;;;4961492;28;20050;-72
2023/08/19 04:01:06;;;;;;;6.78;3.00;;;;;;;;;;4957100;28;20410;-75
2023/08/19 04:03:33;;;;;;;3.40;3.10;;;;;;;;;;4959130;28;20133;-75
2023/08/19 04:05:58;;;;;;;4.82;2.92;;;;;;;;;;4959900;28;20050;-76
2023/08/19 04:08:24;;;;;;;6.13;3.10;;;;;;;;;;4959617;28;20423;-74
2023/08/19 04:10:50;;;;;;;9.95;4.35;;;;;;;;;;4960083;28;20059;-75
2023/08/19 04:13:17;;;;;;;10.27;3.30;;;;;;;;;;4957569;28;20047;-73
2023/08/19 04:15:42;;;;;;;4.78;3.10;;;;;;;;;;4959210;28;20129;-73
2023/08/19 04:18:08;;;;;;;5.47;3.38;;;;;;;;;;4943394;28;20153;-73
2023/08/19 04:20:41;;;;;;;6.63;3.55;;;;;;;;;;4959780;28;20046;-74
2023/08/19 04:23:06;;;;;;;5.18;3.15;;;;;;;;;;4959085;28;20042;-76
2023/08/19 04:25:32;;;;;;;6.95;2.80;;;;;;;;;;4959653;28;20051;-73
2023/08/19 04:27:58;;;;;;;6.07;3.13;;;;;;;;;;4959567;28;20070;-73
2023/08/19 04:30:23;;;;;;;4.75;2.75;;;;;;;;;;4942765;28;20169;-73
2023/08/19 04:32:50;;;;;;;7.18;3.10;;;;;;;;;;4958134;28;20083;-72
2023/08/19 04:35:16;;;;;;;5.53;3.25;;;;;;;;;;4959978;28;20157;-75
2023/08/19 04:37:42;;;;;;;4.28;3.17;;;;;;;;;;4943162;28;20129;-76
2023/08/19 04:46:45;;;;;;;4.72;3.00;;;;;;;;;;4937729;28;20538;-75
2023/08/19 04:49:11;;;;;;;5.20;2.95;;;;;;;;;;4923655;28;20557;-74
2023/08/19 04:51:37;;;;;;;5.68;3.20;;;;;;;;;;4923985;29;20057;-71
2023/08/19 04:54:03;;;;;;;14.48;3.30;;;;;;;;;;4924796;29;20141;-73
2023/08/19 04:56:29;;;;;;;6.80;2.90;;;;;;;;;;4940412;28;20043;-71
2023/08/19 04:58:55;;;;;;;9.73;2.95;;;;;;;;;;4924476;29;20110;-72
2023/08/19 05:01:20;;;;;;;5.05;2.92;;;;;;;;;;4939413;28;20054;-77
2023/08/19 05:03:47;;;;;;;3.80;3.00;;;;;;;;;;4940303;28;20079;-72
2023/08/19 05:06:13;;;;;;;3.83;2.88;;;;;;;;;;4923124;28;20131;-72
2023/08/19 05:08:42;;;;;;;15.88;3.03;;;;;;;;;;4924303;29;20070;-74
2023/08/19 05:11:07;;;;;;;3.55;2.70;;;;;;;;;;4923829;28;20134;-73
2023/08/19 05:13:32;;;;;;;5.80;3.03;;;;;;;;;;4941491;28;20505;-73
2023/08/19 05:15:59;;;;;;;7.25;2.85;;;;;;;;;;4923821;28;20121;-76
2023/08/19 05:18:25;;;;;;;4.85;3.05;;;;;;;;;;4907983;28;20052;-72
2023/08/19 05:20:51;;;;;;;3.60;2.50;;;;;;;;;;4924010;29;20054;-74
2023/08/19 05:23:16;;;;;;;3.38;2.40;;;;;;;;;;4939478;28;20142;-74
2023/08/19 05:25:42;;;;;;;7.43;2.90;;;;;;;;;;4923923;29;20042;-72
2023/08/19 05:28:08;;;;;;;5.80;2.60;;;;;;;;;;4940729;28;20054;-77
2023/08/19 05:30:33;;;;;;;4.25;2.75;;;;;;;;;;4941022;28;20039;-72
2023/08/19 05:32:59;;;;;;;2.97;2.35;;;;;;;;;;4942361;28;20059;-76
2023/08/19 05:35:24;;;;;;;4.70;2.55;;;;;;;;;;4944158;28;20055;-76
2023/08/19 05:37:49;;;;;;;4.45;2.15;;;;;;;;;;4944854;28;20109;-75
2023/08/19 05:40:15;;;;;;;3.83;2.60;;;;;;;;;;4943583;28;20057;-76
2023/08/19 05:42:40;;;;;;;5.07;2.60;;;;;;;;;;4944228;28;20118;-76
2023/08/19 05:48:40;;;;;;;4.72;2.58;;;;;;;;;;4929097;23;20074;-73
2023/08/19 05:51:06;;;;;;;4.72;2.40;;;;;;;;;;4906340;29;20602;-75
2023/08/19 05:53:31;;;;;;;4.53;2.60;;;;;;;;;;4924618;29;20139;-73
2023/08/19 05:55:57;;;;;;;4.15;2.53;;;;;;;;;;4925042;29;20142;-74
2023/08/19 05:58:22;;;;;;;4.28;2.30;;;;;;;;;;4924593;29;20043;-76
2023/08/19 06:00:48;;;;;;;4.20;2.40;;;;;;;;;;4906643;29;20106;-78
2023/08/19 06:03:14;;;;;;;6.13;2.50;;;;;;;;;;4924698;29;20134;-74
2023/08/19 06:05:39;;;;;;;3.03;2.20;;;;;;;;;;4926381;29;20052;-73
2023/08/19 06:08:05;;;;;;;5.00;2.53;;;;;;;;;;4925820;29;20043;-72
2023/08/19 06:10:30;;;;;;;3.75;2.60;;;;;;;;;;4926408;29;20059;-73
2023/08/19 06:12:57;;;;;;;8.05;2.63;;;;;;;;;;4907669;29;20047;-75
2023/08/19 06:15:22;;;;;;;3.85;2.30;;;;;;;;;;4923924;29;20985;-73
2023/08/19 06:17:48;;;;;;;5.60;2.28;;;;;;;;;;4926772;29;20047;-74
2023/08/19 06:20:14;;;;;;;6.30;2.40;;;;;;;;;;4909201;29;20054;-75
2023/08/19 06:22:39;;;;;;;5.20;2.33;;;;;;;;;;4924775;29;20052;-73
2023/08/19 06:25:05;;;;;;;3.65;2.10;;;;;;;;;;4906952;29;20043;-76
2023/08/19 06:27:30;;;;;;;5.10;2.50;;;;;;;;;;4907384;29;20051;-77
2023/08/19 06:29:56;;;;;;;4.70;2.38;;;;;;;;;;4907523;29;20043;-74
2023/08/19 06:32:22;;;;;;;3.95;2.08;;;;;;;;;;4918846;29;20576;-72
2023/08/19 06:34:48;;;;;;;2.88;2.30;;;;;;;;;;4921818;29;20071;-76
2023/08/19 06:37:25;;;;;;;3.95;2.50;;;;;;;;;;4919419;28;20043;-77
2023/08/19 06:39:54;;;;;;;3.88;2.50;;;;;;;;;;4905260;29;20051;-73
2023/08/19 06:42:20;;;;;;;3.60;2.40;;;;;;;;;;4920320;29;20423;-74
2023/08/19 06:44:49;;;;;;;3.17;2.20;;;;;;;;;;4918580;28;20050;-78
2023/08/19 06:47:21;;;;;;;6.25;2.45;;;;;;;;;;4920186;29;20051;-71
2023/08/19 06:49:47;;;;;;;8.95;2.20;;;;;;;;;;4922512;28;20058;-72
2023/08/19 06:52:13;;;;;;;8.55;2.92;;;;;;;;;;4921168;29;20603;-72
2023/08/19 06:54:38;;;;;;;4.22;2.40;;;;;;;;;;4904823;29;20051;-73
2023/08/19 06:57:13;;;;;;;4.55;2.47;;;;;;;;;;4918692;29;20967;-75
2023/08/19 06:59:40;;;;;;;2.88;2.58;;;;;;;;;;4920885;29;20047;-73
2023/08/19 07:02:07;;;;;;;4.68;2.13;;;;;;;;;;4920162;29;20231;-77
2023/08/19 07:04:35;;;;;;;6.95;2.17;;;;;;;;;;4903607;29;20044;-72
2023/08/19 07:07:05;;;;;;;5.07;2.30;;;;;;;;;;4919788;29;20039;-72
2023/08/19 07:09:33;;;;;;;4.45;2.67;;;;;;;;;;4921901;28;20062;-70
2023/08/19 07:11:59;;;;;;;5.75;2.78;;;;;;;;;;4921247;29;20048;-72
2023/08/19 07:14:26;;;;;;;2.72;2.38;;;;;;;;;;4904185;29;20049;-72
2023/08/19 07:16:54;;;;;;;3.78;2.50;;;;;;;;;;4922076;28;20052;-71
2023/08/19 07:19:24;;;;;;;4.80;2.50;;;;;;;;;;4919711;29;20610;-71
2023/08/19 07:21:50;;;;;;;4.35;2.30;;;;;;;;;;4921785;28;20036;-71
2023/08/19 07:24:16;;;;;;;6.88;2.47;;;;;;;;;;4921290;29;20138;-76
2023/08/19 07:26:43;;;;;;;5.93;2.45;;;;;;;;;;4904554;29;20062;-70
2023/08/19 07:29:09;;;;;;;4.82;2.58;;;;;;;;;;4919846;28;20055;-70
2023/08/19 07:31:34;;;;;;;3.17;2.38;;;;;;;;;;4904492;29;20040;-73
2023/08/19 07:34:00;;;;;;;6.20;2.70;;;;;;;;;;4903512;29;20412;-71
2023/08/19 07:36:26;;;;;;;7.18;2.40;;;;;;;;;;4921040;29;20985;-71
2023/08/19 07:38:52;;;;;;;6.13;2.58;;;;;;;;;;4921986;29;20099;-72
2023/08/19 07:41:20;;;;;;;3.40;2.28;;;;;;;;;;4908123;29;20055;-71
2023/08/19 07:43:47;;;;;;;6.55;2.42;;;;;;;;;;4921912;29;20073;-74
2023/08/19 07:46:15;;;;;;;8.25;2.47;;;;;;;;;;4903885;29;20071;-77
2023/08/19 07:48:44;;;;;;;2.72;2.20;;;;;;;;;;4919720;29;20180;-71
2023/08/19 07:51:11;;;;;;;5.07;2.53;;;;;;;;;;4919876;29;20054;-77
2023/08/19 07:53:36;;;;;;;4.88;2.60;;;;;;;;;;4921795;29;20063;-74
2023/08/19 07:56:01;;;;;;;5.50;2.50;;;;;;;;;;4904219;29;20044;-74
2023/08/19 07:58:27;;;;;;;3.75;2.30;;;;;;;;;;4919287;29;20165;-72
2023/08/19 08:00:52;;;;;;;3.47;2.40;;;;;;;;;;4920753;29;20083;-75
2023/08/19 08:03:18;;;;;;;4.00;2.20;;;;;;;;;;4919856;29;20562;-74
2023/08/19 08:05:44;;;;;;;2.42;2.20;;;;;;;;;;4921211;29;20046;-76
2023/08/19 08:08:09;;;;;;;3.75;2.03;;;;;;;;;;4904060;29;20118;-74
2023/08/19 08:10:35;;;;;;;5.50;2.55;;;;;;;;;;4921226;29;20047;-72
2023/08/19 08:13:00;;;;;;;3.60;2.40;;;;;;;;;;4919195;29;20043;-74
2023/08/19 08:15:26;;;;;;;5.03;2.35;;;;;;;;;;4920438;29;20059;-73
2023/08/19 08:17:51;;;;;;;5.25;2.63;;;;;;;;;;4920393;29;20048;-75
2023/08/19 08:20:17;;;;;;;7.70;3.28;;;;;;;;;;4920909;29;20521;-75
2023/08/19 08:22:42;;;;;;;2.53;2.22;;;;;;;;;;4920306;29;20036;-75
2023/08/19 08:25:11;;;;;;;3.20;2.17;;;;;;;;;;4918534;29;20063;-73
2023/08/19 08:27:37;;;;;;;3.90;2.42;;;;;;;;;;4920574;29;20055;-73
2023/08/19 08:30:02;;;;;;;5.18;2.33;;;;;;;;;;4918068;29;20044;-72
2023/08/19 08:32:28;;;;;;;4.18;2.25;;;;;;;;;;4916843;29;20040;-76
2023/08/19 08:34:53;;;;;;;2.85;1.98;;;;;;;;;;4915821;29;20192;-71
2023/08/19 08:37:20;;;;;;;5.40;2.60;;;;;;;;;;4919438;23;20055;-74
2023/08/19 08:39:45;;;;;;;4.75;2.40;;;;;;;;;;4909573;29;21075;-78
2023/08/19 08:42:11;;;;;;;4.35;2.40;;;;;;;;;;4912789;29;20063;-74
2023/08/19 08:44:37;;;;;;;4.57;2.13;;;;;;;;;;4912523;29;20106;-77
2023/08/19 08:47:03;;;;;;;3.85;2.13;;;;;;;;;;4912926;29;20039;-76
2023/08/19 08:49:29;;;;;;;8.65;2.45;;;;;;;;;;4904840;29;20062;-76
2023/08/19 08:51:55;;;;;;;4.43;2.33;;;;;;;;;;4922530;29;20054;-77
2023/08/19 08:54:21;;;;;;;4.60;2.45;;;;;;;;;;4908305;29;20044;-76
2023/08/19 08:56:47;;;;;;;2.47;2.28;;;;;;;;;;4922853;28;21108;-75
2023/08/19 08:59:13;;;;;;;3.20;2.35;;;;;;;;;;4921990;29;20047;-74
2023/08/19 09:01:40;;;;;;;6.25;2.65;;;;;;;;;;4922005;28;20043;-74
2023/08/19 09:04:08;;;;;;;3.90;2.20;;;;;;;;;;4921872;29;20747;-75
2023/08/19 09:06:37;;;;;;;2.65;2.20;;;;;;;;;;4922613;29;20052;-75
2023/08/19 09:09:08;;;;;;;2.50;2.30;;;;;;;;;;4925001;28;20051;-75
2023/08/19 09:11:38;;;;;;;2.88;2.42;;;;;;;;;;4926698;29;20051;-74
2023/08/19 09:14:34;;;;;;;5.10;2.20;;;;;;;;;;4927894;28;20074;-76
2023/08/19 09:17:00;;;;;;;5.10;2.55;;;;;;;;;;4926378;29;20147;-76
2023/08/19 09:19:25;;;;;;;2.85;2.33;;;;;;;;;;4908184;29;20134;-76
2023/08/19 09:21:51;;;;;;;5.65;2.47;;;;;;;;;;4909474;29;20619;-75
2023/08/19 09:24:16;;;;;;;9.65;2.38;;;;;;;;;;4926719;29;20048;-75
2023/08/19 09:26:44;;;;;;;4.30;2.08;;;;;;;;;;4927018;28;20048;-75
2023/08/19 09:29:10;;;;;;;5.40;2.00;;;;;;;;;;4925589;29;20088;-77
2023/08/19 09:31:38;;;;;;;6.55;2.65;;;;;;;;;;4926271;28;20075;-75
2023/08/19 09:34:04;;;;;;;9.48;2.17;;;;;;;;;;4927028;29;20067;-75
2023/08/19 09:36:30;;;;;;;4.65;2.22;;;;;;;;;;4905473;29;21128;-75
2023/08/19 09:38:56;;;;;;;5.25;3.10;;;;;;;;;;4908488;29;20067;-73
2023/08/19 09:41:29;;;;;;;2.40;2.20;;;;;;;;;;4905386;29;20233;-75
2023/08/19 09:43:56;;;;;;;3.33;2.10;;;;;;;;;;4908191;29;20067;-77
2023/08/19 09:46:34;;;;;;;1.98;1.88;;;;;;;;;;4906384;29;20036;-77
2023/08/19 09:49:00;;;;;;;5.35;1.95;;;;;;;;;;4907106;29;20044;-77
2023/08/19 09:51:27;;;;;;;6.22;2.20;;;;;;;;;;4905454;29;20095;-76
2023/08/19 09:53:53;;;;;;;3.10;2.17;;;;;;;;;;4873938;29;20047;-76
2023/08/19 09:56:21;;;;;;;5.38;2.28;;;;;;;;;;4884272;29;20159;-75
2023/08/19 09:58:49;;;;;;;3.53;1.92;;;;;;;;;;4905245;29;20076;-75
2023/08/19 10:01:14;;;;;;;3.83;2.13;;;;;;;;;;4902332;29;20048;-76
2023/08/19 10:03:40;;;;;;;4.03;2.10;;;;;;;;;;4887531;29;20067;-75
2023/08/19 10:06:06;;;;;;;3.00;2.08;;;;;;;;;;4903071;29;20055;-75
2023/08/19 10:08:35;;;;;;;2.42;1.98;;;;;;;;;;4904209;29;20593;-76
2023/08/19 10:11:02;;;;;;;2.70;2.28;;;;;;;;;;4903305;29;20051;-74
2023/08/19 10:13:27;;;;;;;3.75;2.20;;;;;;;;;;4903887;29;20060;-76
2023/08/19 10:15:57;;;;;;;2.50;2.30;;;;;;;;;;4903978;29;20056;-76
2023/08/19 10:18:28;;;;;;;4.40;2.50;;;;;;;;;;4904023;29;20090;-76
2023/08/19 10:20:57;;;;;;;4.30;2.30;;;;;;;;;;4904434;29;20116;-75
2023/08/19 10:23:25;;;;;;;3.88;2.20;;;;;;;;;;4886559;29;20059;-76
2023/08/19 10:25:51;;;;;;;3.38;2.00;;;;;;;;;;4904399;29;20127;-76
2023/08/19 10:28:27;;;;;;;4.78;1.98;;;;;;;;;;4903131;29;20139;-76
2023/08/19 10:31:07;;;;;;;4.18;2.17;;;;;;;;;;4904792;29;20063;-74
2023/08/19 10:33:39;;;;;;;3.17;2.00;;;;;;;;;;4885133;29;20101;-74
2023/08/19 10:36:06;;;;;;;4.45;2.40;;;;;;;;;;4902611;29;20068;-75
2023/08/19 10:39:14;;;;;;;2.83;2.10;;;;;;;;;;4924137;28;20925;-74
2023/08/19 10:41:40;;;;;;;3.20;2.25;;;;;;;;;;4863235;29;20049;-74
2023/08/19 10:44:17;;;;;;;3.03;1.90;;;;;;;;;;4912304;28;20054;-75
2023/08/19 10:46:47;;;;;;;3.38;1.98;;;;;;;;;;4923050;29;20541;-75
2023/08/19 10:49:19;;;;;;;3.63;2.00;;;;;;;;;;4920352;28;20150;-75
2023/08/19 10:52:03;;;;;;;3.42;1.80;;;;;;;;;;4918727;29;20063;-75
2023/08/19 10:54:41;;;;;;;3.30;2.10;;;;;;;;;;4920853;29;20048;-75
2023/08/19 10:57:12;;;;;;;4.75;1.90;;;;;;;;;;4920994;28;20063;-71
2023/08/19 10:59:40;;;;;;;3.22;1.88;;;;;;;;;;4922030;29;20055;-73
2023/08/19 11:02:07;;;;;;;5.63;2.22;;;;;;;;;;4921081;28;20048;-74
2023/08/19 11:04:44;;;;;;;2.45;2.03;;;;;;;;;;4904024;29;20431;-73
2023/08/19 11:07:10;;;;;;;3.03;1.98;;;;;;;;;;4920602;28;20044;-72
2023/08/19 11:09:36;;;;;;;5.10;1.98;;;;;;;;;;4922906;29;20138;-73
2023/08/19 11:12:02;;;;;;;3.45;1.88;;;;;;;;;;4923374;29;20577;-76
2023/08/19 11:14:28;;;;;;;4.15;1.92;;;;;;;;;;4923927;28;20131;-73
2023/08/19 11:16:55;;;;;;;4.05;2.20;;;;;;;;;;4923703;29;20040;-75
2023/08/19 11:19:21;;;;;;;4.63;2.20;;;;;;;;;;4922014;28;20130;-74
2023/08/19 11:21:47;;;;;;;2.70;1.80;;;;;;;;;;4904634;29;20151;-76
2023/08/19 11:24:13;;;;;;;6.93;2.28;;;;;;;;;;4906598;29;20158;-73
2023/08/19 11:26:40;;;;;;;2.35;2.05;;;;;;;;;;4923301;29;20071;-73
2023/08/19 11:29:06;;;;;;;1.65;1.55;;;;;;;;;;4905782;29;20052;-76
2023/08/19 11:31:36;;;;;;;4.43;2.28;;;;;;;;;;4921024;29;20043;-75
2023/08/19 11:34:12;;;;;;;3.77;1.90;;;;;;;;;;4923203;28;20048;-76
2023/08/19 11:36:39;;;;;;;2.83;1.65;;;;;;;;;;4922571;29;20067;-73
2023/08/19 11:39:05;;;;;;;3.63;2.10;;;;;;;;;;4922010;28;20043;-75
2023/08/19 11:41:32;;;;;;;2.70;2.15;;;;;;;;;;4921641;29;20215;-73
2023/08/19 11:43:59;;;;;;;4.80;1.98;;;;;;;;;;4922809;29;20047;-72
2023/08/19 11:46:31;;;;;;;2.53;1.88;;;;;;;;;;4922807;28;20151;-75
2023/08/19 11:48:58;;;;;;;2.72;2.05;;;;;;;;;;4924393;29;20045;-77
2023/08/19 11:51:28;;;;;;;3.80;1.80;;;;;;;;;;4922189;28;20048;-74
2023/08/19 11:54:04;;;;;;;4.40;1.88;;;;;;;;;;4923413;29;20043;-76
2023/08/19 11:56:50;;;;;;;4.53;1.90;;;;;;;;;;4921978;29;20062;-72
2023/08/19 11:59:16;;;;;;;2.38;1.60;;;;;;;;;;4923147;28;20048;-74
2023/08/19 12:01:45;;;;;;;4.55;1.55;;;;;;;;;;4926417;29;20052;-74
2023/08/19 12:04:12;;;;;;;2.63;1.60;;;;;;;;;;4917625;28;20130;-72
2023/08/19 12:06:38;;;;;;;2.45;1.55;;;;;;;;;;4922246;29;20051;-73
2023/08/19 12:09:04;;;;;;;2.60;1.63;;;;;;;;;;4923306;28;20053;-74
2023/08/19 12:11:30;;;;;;;1.92;1.50;;;;;;;;;;4922771;29;20048;-73
2023/08/19 12:13:56;;;;;;;1.42;1.30;;;;;;;;;;4922726;29;20080;-75
2023/08/19 12:16:22;;;;;;;2.50;1.20;;;;;;;;;;4921364;29;20069;-75
2023/08/19 12:18:47;;;;;;;1.23;1.13;;;;;;;;;;4923318;29;20483;-75
2023/08/19 12:21:13;;;;;;;2.95;1.35;;;;;;;;;;4922110;28;20062;-74
2023/08/19 12:23:38;;;;;;;3.50;1.10;;;;;;;;;;4928630;29;20111;-73
2023/08/19 12:26:04;;;;;;;4.18;1.52;;;;;;;;;;4907972;29;20596;-74
2023/08/19 12:28:29;;;;;;;2.55;1.83;;;;;;;;;;4922508;28;20524;-74
2023/08/19 12:30:55;;;;;;;1.95;1.70;;;;;;;;;;4921895;29;20066;-73
2023/08/19 12:33:21;;;;;;;5.78;1.98;;;;;;;;;;4921788;28;20043;-73
2023/08/19 12:35:48;;;;;;;1.98;1.40;;;;;;;;;;4917096;29;20047;-74
2023/08/19 12:38:15;;;;;;;5.43;1.58;;;;;;;;;;4917139;29;20118;-75
2023/08/19 12:40:41;;;;;;;2.95;1.65;;;;;;;;;;4919946;29;20055;-74
2023/08/19 12:43:07;;;;;;;2.03;1.50;;;;;;;;;;4918702;28;20046;-73
2023/08/19 12:45:33;;;;;;;3.10;1.23;;;;;;;;;;4920103;29;20352;-74
2023/08/19 12:47:58;;;;;;;2.22;1.80;;;;;;;;;;4919117;28;20093;-74
2023/08/19 12:50:23;;;;;;;2.50;1.70;;;;;;;;;;4920172;29;20051;-75
2023/08/19 12:52:49;;;;;;;3.45;1.67;;;;;;;;;;4919624;29;20082;-74
2023/08/19 12:55:18;;;;;;;3.05;1.90;;;;;;;;;;4920085;28;20106;-74
2023/08/19 12:57:44;;;;;;;2.72;1.58;;;;;;;;;;4920561;29;20134;-74
2023/08/19 13:00:12;;;;;;;5.88;1.60;;;;;;;;;;4920917;28;20147;-74
2023/08/19 13:02:41;;;;;;;5.80;1.80;;;;;;;;;;4920897;29;20147;-74
2023/08/19 13:05:07;;;;;;;2.05;1.30;;;;;;;;;;4920200;28;20049;-74
2023/08/19 13:07:33;;;;;;;2.40;1.48;;;;;;;;;;4920894;29;20048;-73
2023/08/19 13:10:02;;;;;;;5.28;1.60;;;;;;;;;;4919401;29;20720;-74
2023/08/19 13:12:28;;;;;;;3.63;1.55;;;;;;;;;;4920238;28;20056;-73
2023/08/19 13:14:55;;;;;;;4.00;1.55;;;;;;;;;;4920322;29;20070;-74
2023/08/19 13:17:22;;;;;;;1.90;1.58;;;;;;;;;;4919744;28;20047;-73
2023/08/19 13:19:51;;;;;;;4.82;1.95;;;;;;;;;;4902368;29;20228;-75
2023/08/19 13:22:19;;;;;;;2.13;1.60;;;;;;;;;;4918616;29;20523;-73
2023/08/19 13:24:45;;;;;;;6.72;2.35;;;;;;;;;;4919503;29;20627;-73
2023/08/19 13:27:11;;;;;;;7.50;1.70;;;;;;;;;;4919377;28;20604;-74
2023/08/19 13:29:37;;;;;;;4.00;1.70;;;;;;;;;;4919716;29;20082;-74
2023/08/19 13:32:02;;;;;;;5.45;1.58;;;;;;;;;;4919074;29;20441;-74
2023/08/19 13:34:28;;;;;;;5.72;1.67;;;;;;;;;;4919839;28;20067;-74
2023/08/19 13:36:53;;;;;;;2.55;1.70;;;;;;;;;;4918511;29;20083;-74
2023/08/19 13:39:19;;;;;;;4.88;1.70;;;;;;;;;;4918986;29;20048;-73
2023/08/19 13:41:44;;;;;;;3.55;1.63;;;;;;;;;;4912781;29;21076;-74
2023/08/19 13:44:10;;;;;;;2.55;1.30;;;;;;;;;;4921558;28;20217;-74
2023/08/19 13:46:35;;;;;;;3.58;1.85;;;;;;;;;;4921233;29;20078;-73
2023/08/19 13:49:01;;;;;;;5.97;1.52;;;;;;;;;;4916840;29;20074;-74
2023/08/19 13:51:27;;;;;;;3.75;1.50;;;;;;;;;;4920807;29;20660;-74
2023/08/19 13:53:53;;;;;;;6.60;2.05;;;;;;;;;;4921596;28;20044;-72
2023/08/19 13:56:18;;;;;;;4.75;1.60;;;;;;;;;;4924103;29;20159;-75
2023/08/19 13:58:44;;;;;;;3.17;1.45;;;;;;;;;;4925163;29;20465;-73
2023/08/19 14:01:10;;;;;;;4.50;1.85;;;;;;;;;;4906477;29;20044;-74
2023/08/19 14:03:36;;;;;;;6.28;1.50;;;;;;;;;;4924671;29;20051;-73
2023/08/19 14:06:02;;;;;;;4.70;1.58;;;;;;;;;;4923937;28;20051;-74
2023/08/19 14:08:28;;;;;;;2.30;1.60;;;;;;;;;;4924530;29;20062;-73
2023/08/19 14:10:54;;;;;;;3.72;1.73;;;;;;;;;;4924220;29;20048;-73
2023/08/19 14:13:21;;;;;;;5.93;1.63;;;;;;;;;;4924364;28;20050;-73
2023/08/19 14:15:47;;;;;;;7.30;1.83;;;;;;;;;;4922672;29;20058;-75
2023/08/19 14:18:12;;;;;;;4.28;1.58;;;;;;;;;;4923219;28;20052;-74
2023/08/19 14:20:38;;;;;;;10.10;1.50;;;;;;;;;;4918133;29;20393;-72
2023/08/19 14:23:04;;;;;;;2.97;1.60;;;;;;;;;;4920539;29;20044;-75
2023/08/19 14:25:29;;;;;;;2.45;1.40;;;;;;;;;;4919974;28;20106;-74
2023/08/19 14:27:55;;;;;;;3.17;2.20;;;;;;;;;;4921242;29;20618;-74
2023/08/19 14:30:21;;;;;;;2.95;1.67;;;;;;;;;;4903964;29;20125;-73
2023/08/19 14:32:47;;;;;;;4.28;1.73;;;;;;;;;;4921997;28;20123;-72
2023/08/19 14:35:13;;;;;;;5.13;1.52;;;;;;;;;;4921000;29;20138;-75
2023/08/19 14:37:38;;;;;;;6.25;1.88;;;;;;;;;;4921711;28;20135;-75
2023/08/19 14:40:05;;;;;;;5.47;1.77;;;;;;;;;;4922729;29;20046;-72
2023/08/19 14:42:31;;;;;;;3.92;1.48;;;;;;;;;;4921484;29;20043;-73
2023/08/19 14:44:56;;;;;;;6.82;2.00;;;;;;;;;;4922738;28;20079;-74
2023/08/19 14:47:21;;;;;;;4.78;1.77;;;;;;;;;;4921466;29;20120;-73
2023/08/19 14:49:47;;;;;;;4.40;2.10;;;;;;;;;;4922319;28;20127;-72
2023/08/19 14:52:16;;;;;;;2.75;1.58;;;;;;;;;;4919362;29;20353;-74